アナディリ の空港の天気 - METARとTAF

アナディリ・ウゴルヌイ空港 ( UHMA / DYR ) - ロシア アナディリ
飛行場実況気象(Metar)
観測時間10/21 03:00 MAGT (10/20 16:00 UTC)
風向・風速北北東 4m/s
視程10km以上
天気現象
全天の4割程度の雲 雲底高度 1160m
気温-2℃
湿度80%
気圧1007hPa
METARUHMA 201600Z 02004MPS 9999 SCT038 M02/M05 Q1007 R01/////// NOSIG RMK TDZ R01/02004G06MPS END R01/01006G07MPS QFE751/1002
過去の天気等 Google飛行場航空写真 Wunderground天気予報

過去48時間のMETAR

飛行場予報(TAF)
発表時間: 10/21 00:40 MAGT (10/20 13:40 UTC)
予報対象時間: 21日2時 MAGT ~ 22日2時 MAGT
風向・風速北 6m/s
視程10km以上
全天の8割程度の雲 雲底高度 910m
21日2時 MAGT ~ 22日2時 MAGT に一時的に
風向・風速北西 8m/s 瞬間風速 13m/s
視程3100m
天気現象弱いしゅう雪 高い地吹雪
全天の4割程度の雲 雲底高度 210m
全天の8割程度の積乱雲 雲底高度 460m
TAF UHMA 201340Z 2015/2115 01006MPS 9999 BKN030
TEMPO 2015/2115 31008G13MPS 3100 -SHSN BLSN SCT007 BKN015CB